sensor_id;sensor_type;location;lat;lon;timestamp;P1;durP1;ratioP1;P2;durP2;ratioP2
21733;SDS011;11029;47.820;10.534;2023-08-06T09:58:11;0.10;;;0.10;;
21733;SDS011;11029;47.820;10.534;2023-08-06T10:00:39;0.93;;;0.22;;
21733;SDS011;11029;47.820;10.534;2023-08-06T10:03:06;0.52;;;0.10;;
21733;SDS011;11029;47.820;10.534;2023-08-06T10:05:34;0.30;;;0.20;;
21733;SDS011;11029;47.820;10.534;2023-08-06T10:08:02;0.32;;;0.10;;
21733;SDS011;11029;47.820;10.534;2023-08-06T10:10:31;0.20;;;0.20;;
21733;SDS011;11029;47.820;10.534;2023-08-06T10:12:58;0.20;;;0.20;;
21733;SDS011;11029;47.820;10.534;2023-08-06T10:15:28;0.30;;;0.20;;
21733;SDS011;11029;47.820;10.534;2023-08-06T10:17:57;0.20;;;0.20;;
21733;SDS011;11029;47.820;10.534;2023-08-06T10:20:25;0.20;;;0.20;;
21733;SDS011;11029;47.820;10.534;2023-08-06T10:22:59;0.13;;;0.13;;
21733;SDS011;11029;47.820;10.534;2023-08-06T10:25:31;2.15;;;0.25;;
21733;SDS011;11029;47.820;10.534;2023-08-06T10:28:08;1.50;;;0.20;;
21733;SDS011;11029;47.820;10.534;2023-08-06T10:30:41;0.43;;;0.20;;
21733;SDS011;11029;47.820;10.534;2023-08-06T10:33:11;0.10;;;0.10;;
21733;SDS011;11029;47.820;10.534;2023-08-06T10:35:42;1.02;;;0.28;;
21733;SDS011;11029;47.820;10.534;2023-08-06T10:43:30;0.75;;;0.20;;
21733;SDS011;11029;47.820;10.534;2023-08-06T10:46:02;0.10;;;0.10;;
21733;SDS011;11029;47.820;10.534;2023-08-06T10:48:32;0.10;;;0.10;;
21733;SDS011;11029;47.820;10.534;2023-08-06T10:51:00;0.20;;;0.17;;
21733;SDS011;11029;47.820;10.534;2023-08-06T10:53:27;0.40;;;0.10;;
21733;SDS011;11029;47.820;10.534;2023-08-06T10:55:57;0.10;;;0.10;;
21733;SDS011;11029;47.820;10.534;2023-08-06T10:58:24;0.20;;;0.20;;
21733;SDS011;11029;47.820;10.534;2023-08-06T11:00:51;0.40;;;0.30;;
21733;SDS011;11029;47.820;10.534;2023-08-06T11:03:18;0.10;;;0.10;;
21733;SDS011;11029;47.820;10.534;2023-08-06T11:05:48;0.10;;;0.10;;
21733;SDS011;11029;47.820;10.534;2023-08-06T11:08:29;0.20;;;0.20;;
21733;SDS011;11029;47.820;10.534;2023-08-06T11:13:37;0.10;;;0.10;;
21733;SDS011;11029;47.820;10.534;2023-08-06T11:16:05;0.45;;;0.10;;
21733;SDS011;11029;47.820;10.534;2023-08-06T11:18:32;0.20;;;0.20;;
21733;SDS011;11029;47.820;10.534;2023-08-06T11:21:00;1.17;;;0.20;;
21733;SDS011;11029;47.820;10.534;2023-08-06T11:23:28;0.10;;;0.10;;
21733;SDS011;11029;47.820;10.534;2023-08-06T11:25:55;0.10;;;0.10;;
21733;SDS011;11029;47.820;10.534;2023-08-06T11:28:23;0.10;;;0.10;;
21733;SDS011;11029;47.820;10.534;2023-08-06T11:30:50;0.63;;;0.20;;
21733;SDS011;11029;47.820;10.534;2023-08-06T11:33:22;0.10;;;0.10;;
21733;SDS011;11029;47.820;10.534;2023-08-06T11:35:52;0.98;;;0.20;;
21733;SDS011;11029;47.820;10.534;2023-08-06T11:38:20;0.10;;;0.10;;
21733;SDS011;11029;47.820;10.534;2023-08-06T11:40:47;0.10;;;0.10;;
21733;SDS011;11029;47.820;10.534;2023-08-06T11:43:14;0.45;;;0.20;;
21733;SDS011;11029;47.820;10.534;2023-08-06T11:45:41;0.40;;;0.40;;
21733;SDS011;11029;47.820;10.534;2023-08-06T11:48:08;0.50;;;0.22;;
21733;SDS011;11029;47.820;10.534;2023-08-06T11:50:38;0.20;;;0.20;;
21733;SDS011;11029;47.820;10.534;2023-08-06T11:53:05;0.50;;;0.10;;
21733;SDS011;11029;47.820;10.534;2023-08-06T11:55:32;0.10;;;0.10;;
21733;SDS011;11029;47.820;10.534;2023-08-06T11:58:02;0.10;;;0.10;;
21733;SDS011;11029;47.820;10.534;2023-08-06T12:00:32;0.80;;;0.45;;
21733;SDS011;11029;47.820;10.534;2023-08-06T12:02:59;0.47;;;0.43;;
21733;SDS011;11029;47.820;10.534;2023-08-06T12:05:30;0.40;;;0.20;;
21733;SDS011;11029;47.820;10.534;2023-08-06T12:07:59;0.20;;;0.20;;
21733;SDS011;11029;47.820;10.534;2023-08-06T12:10:28;0.20;;;0.20;;
21733;SDS011;11029;47.820;10.534;2023-08-06T12:12:56;0.30;;;0.20;;
21733;SDS011;11029;47.820;10.534;2023-08-06T12:15:23;0.10;;;0.10;;
21733;SDS011;11029;47.820;10.534;2023-08-06T12:17:50;0.30;;;0.10;;
21733;SDS011;11029;47.820;10.534;2023-08-06T12:20:17;0.20;;;0.20;;
21733;SDS011;11029;47.820;10.534;2023-08-06T12:22:44;0.75;;;0.10;;
21733;SDS011;11029;47.820;10.534;2023-08-06T12:25:12;0.10;;;0.10;;
21733;SDS011;11029;47.820;10.534;2023-08-06T12:27:43;0.10;;;0.10;;
21733;SDS011;11029;47.820;10.534;2023-08-06T12:30:12;1.45;;;0.22;;
21733;SDS011;11029;47.820;10.534;2023-08-06T12:32:39;0.85;;;0.20;;
21733;SDS011;11029;47.820;10.534;2023-08-06T12:35:07;0.20;;;0.20;;
21733;SDS011;11029;47.820;10.534;2023-08-06T12:37:34;0.30;;;0.20;;
21733;SDS011;11029;47.820;10.534;2023-08-06T12:40:02;0.10;;;0.10;;
21733;SDS011;11029;47.820;10.534;2023-08-06T12:42:50;0.20;;;0.20;;
21733;SDS011;11029;47.820;10.534;2023-08-06T12:45:17;0.20;;;0.20;;
21733;SDS011;11029;47.820;10.534;2023-08-06T12:47:47;0.10;;;0.10;;
21733;SDS011;11029;47.820;10.534;2023-08-06T12:50:15;0.20;;;0.20;;
21733;SDS011;11029;47.820;10.534;2023-08-06T12:52:43;0.20;;;0.20;;
21733;SDS011;11029;47.820;10.534;2023-08-06T12:55:10;1.30;;;0.20;;
21733;SDS011;11029;47.820;10.534;2023-08-06T12:57:36;0.20;;;0.20;;
21733;SDS011;11029;47.820;10.534;2023-08-06T13:00:22;0.22;;;0.22;;
21733;SDS011;11029;47.820;10.534;2023-08-06T13:02:49;0.20;;;0.20;;
21733;SDS011;11029;47.820;10.534;2023-08-06T13:05:16;0.20;;;0.10;;
21733;SDS011;11029;47.820;10.534;2023-08-06T13:07:43;0.20;;;0.20;;
21733;SDS011;11029;47.820;10.534;2023-08-06T13:10:09;0.30;;;0.30;;
21733;SDS011;11029;47.820;10.534;2023-08-06T13:12:36;0.43;;;0.30;;
21733;SDS011;11029;47.820;10.534;2023-08-06T13:16:39;0.28;;;0.28;;
21733;SDS011;11029;47.820;10.534;2023-08-06T13:19:07;0.75;;;0.30;;
21733;SDS011;11029;47.820;10.534;2023-08-06T13:24:06;0.38;;;0.20;;
21733;SDS011;11029;47.820;10.534;2023-08-06T13:26:34;0.30;;;0.30;;
21733;SDS011;11029;47.820;10.534;2023-08-06T13:29:01;0.30;;;0.30;;
21733;SDS011;11029;47.820;10.534;2023-08-06T13:31:28;0.65;;;0.30;;
21733;SDS011;11029;47.820;10.534;2023-08-06T13:33:55;0.28;;;0.28;;
21733;SDS011;11029;47.820;10.534;2023-08-06T13:36:25;0.38;;;0.38;;
21733;SDS011;11029;47.820;10.534;2023-08-06T13:38:52;0.20;;;0.20;;
21733;SDS011;11029;47.820;10.534;2023-08-06T13:41:19;0.75;;;0.20;;
21733;SDS011;11029;47.820;10.534;2023-08-06T13:43:46;0.20;;;0.20;;
21733;SDS011;11029;47.820;10.534;2023-08-06T13:46:13;0.22;;;0.22;;
21733;SDS011;11029;47.820;10.534;2023-08-06T13:48:45;0.47;;;0.30;;
21733;SDS011;11029;47.820;10.534;2023-08-06T13:51:13;1.25;;;0.20;;
21733;SDS011;11029;47.820;10.534;2023-08-06T13:53:40;1.13;;;0.30;;
21733;SDS011;11029;47.820;10.534;2023-08-06T13:56:07;0.20;;;0.20;;
21733;SDS011;11029;47.820;10.534;2023-08-06T13:58:38;0.40;;;0.30;;
21733;SDS011;11029;47.820;10.534;2023-08-06T14:01:06;0.90;;;0.40;;
21733;SDS011;11029;47.820;10.534;2023-08-06T14:03:33;0.20;;;0.20;;
21733;SDS011;11029;47.820;10.534;2023-08-06T14:06:00;0.20;;;0.20;;
21733;SDS011;11029;47.820;10.534;2023-08-06T14:08:27;0.20;;;0.20;;
21733;SDS011;11029;47.820;10.534;2023-08-06T14:10:54;0.20;;;0.20;;
21733;SDS011;11029;47.820;10.534;2023-08-06T14:13:21;0.20;;;0.20;;
21733;SDS011;11029;47.820;10.534;2023-08-06T14:15:48;0.20;;;0.20;;
21733;SDS011;11029;47.820;10.534;2023-08-06T14:18:15;0.43;;;0.20;;
21733;SDS011;11029;47.820;10.534;2023-08-06T14:20:43;0.52;;;0.30;;
21733;SDS011;11029;47.820;10.534;2023-08-06T14:23:10;0.52;;;0.20;;
21733;SDS011;11029;47.820;10.534;2023-08-06T14:25:37;0.30;;;0.30;;
21733;SDS011;11029;47.820;10.534;2023-08-06T14:28:05;0.20;;;0.20;;
21733;SDS011;11029;47.820;10.534;2023-08-06T14:30:33;0.30;;;0.30;;
21733;SDS011;11029;47.820;10.534;2023-08-06T14:33:01;0.20;;;0.20;;
21733;SDS011;11029;47.820;10.534;2023-08-06T14:35:49;0.20;;;0.20;;
21733;SDS011;11029;47.820;10.534;2023-08-06T14:38:16;0.20;;;0.20;;
21733;SDS011;11029;47.820;10.534;2023-08-06T14:40:43;0.50;;;0.20;;
21733;SDS011;11029;47.820;10.534;2023-08-06T14:43:10;0.20;;;0.20;;
21733;SDS011;11029;47.820;10.534;2023-08-06T14:45:40;0.30;;;0.30;;
21733;SDS011;11029;47.820;10.534;2023-08-06T14:48:07;0.40;;;0.40;;
21733;SDS011;11029;47.820;10.534;2023-08-06T14:50:34;0.40;;;0.30;;
21733;SDS011;11029;47.820;10.534;2023-08-06T14:53:02;0.38;;;0.30;;
21733;SDS011;11029;47.820;10.534;2023-08-06T14:55:31;0.65;;;0.20;;
21733;SDS011;11029;47.820;10.534;2023-08-06T14:58:00;0.57;;;0.30;;
21733;SDS011;11029;47.820;10.534;2023-08-06T15:00:27;0.20;;;0.20;;
21733;SDS011;11029;47.820;10.534;2023-08-06T15:02:54;0.22;;;0.22;;
21733;SDS011;11029;47.820;10.534;2023-08-06T15:05:21;0.22;;;0.22;;
21733;SDS011;11029;47.820;10.534;2023-08-06T15:07:48;0.28;;;0.28;;
21733;SDS011;11029;47.820;10.534;2023-08-06T15:10:15;0.30;;;0.30;;
21733;SDS011;11029;47.820;10.534;2023-08-06T15:12:45;0.30;;;0.30;;
21733;SDS011;11029;47.820;10.534;2023-08-06T15:15:11;1.08;;;0.35;;
21733;SDS011;11029;47.820;10.534;2023-08-06T15:17:38;0.65;;;0.30;;
21733;SDS011;11029;47.820;10.534;2023-08-06T15:20:05;0.40;;;0.40;;
21733;SDS011;11029;47.820;10.534;2023-08-06T15:22:33;1.23;;;0.52;;
21733;SDS011;11029;47.820;10.534;2023-08-06T15:25:00;0.40;;;0.40;;
21733;SDS011;11029;47.820;10.534;2023-08-06T15:27:27;1.08;;;0.40;;
21733;SDS011;11029;47.820;10.534;2023-08-06T15:29:54;0.50;;;0.50;;
21733;SDS011;11029;47.820;10.534;2023-08-06T15:32:21;0.40;;;0.40;;
21733;SDS011;11029;47.820;10.534;2023-08-06T15:34:49;0.43;;;0.43;;
21733;SDS011;11029;47.820;10.534;2023-08-06T15:37:16;0.40;;;0.40;;
21733;SDS011;11029;47.820;10.534;2023-08-06T15:39:44;0.40;;;0.40;;
21733;SDS011;11029;47.820;10.534;2023-08-06T15:42:12;0.47;;;0.47;;
21733;SDS011;11029;47.820;10.534;2023-08-06T15:44:39;1.00;;;0.40;;
21733;SDS011;11029;47.820;10.534;2023-08-06T15:47:06;0.40;;;0.40;;
21733;SDS011;11029;47.820;10.534;2023-08-06T15:49:33;0.55;;;0.40;;
21733;SDS011;11029;47.820;10.534;2023-08-06T15:51:59;0.60;;;0.60;;
21733;SDS011;11029;47.820;10.534;2023-08-06T15:54:26;5.38;;;0.45;;
21733;SDS011;11029;47.820;10.534;2023-08-06T15:56:53;0.50;;;0.50;;
21733;SDS011;11029;47.820;10.534;2023-08-06T15:59:27;0.60;;;0.50;;
21733;SDS011;11029;47.820;10.534;2023-08-06T16:01:58;1.05;;;0.40;;
21733;SDS011;11029;47.820;10.534;2023-08-06T16:04:27;1.40;;;0.20;;
21733;SDS011;11029;47.820;10.534;2023-08-06T16:06:55;0.32;;;0.30;;
21733;SDS011;11029;47.820;10.534;2023-08-06T16:09:22;0.30;;;0.30;;
21733;SDS011;11029;47.820;10.534;2023-08-06T16:11:50;0.30;;;0.30;;
21733;SDS011;11029;47.820;10.534;2023-08-06T16:14:18;0.35;;;0.35;;
21733;SDS011;11029;47.820;10.534;2023-08-06T16:16:46;0.40;;;0.40;;
21733;SDS011;11029;47.820;10.534;2023-08-06T16:19:13;3.05;;;1.13;;
21733;SDS011;11029;47.820;10.534;2023-08-06T16:21:41;5.85;;;3.90;;
21733;SDS011;11029;47.820;10.534;2023-08-06T16:24:08;2.17;;;1.98;;
21733;SDS011;11029;47.820;10.534;2023-08-06T16:26:35;2.55;;;2.35;;
21733;SDS011;11029;47.820;10.534;2023-08-06T16:29:03;2.08;;;0.93;;
21733;SDS011;11029;47.820;10.534;2023-08-06T16:31:29;1.67;;;0.98;;
21733;SDS011;11029;47.820;10.534;2023-08-06T16:33:57;2.60;;;2.40;;
21733;SDS011;11029;47.820;10.534;2023-08-06T16:36:24;2.95;;;1.17;;
21733;SDS011;11029;47.820;10.534;2023-08-06T16:38:51;0.50;;;0.50;;
21733;SDS011;11029;47.820;10.534;2023-08-06T16:41:18;1.48;;;0.60;;
21733;SDS011;11029;47.820;10.534;2023-08-06T16:43:45;1.42;;;0.68;;
21733;SDS011;11029;47.820;10.534;2023-08-06T16:46:11;2.72;;;0.70;;
21733;SDS011;11029;47.820;10.534;2023-08-06T16:48:38;1.35;;;0.50;;
21733;SDS011;11029;47.820;10.534;2023-08-06T16:51:05;0.57;;;0.57;;
21733;SDS011;11029;47.820;10.534;2023-08-06T16:53:32;0.57;;;0.57;;
21733;SDS011;11029;47.820;10.534;2023-08-06T16:55:59;2.05;;;0.80;;
21733;SDS011;11029;47.820;10.534;2023-08-06T16:58:26;0.85;;;0.50;;
21733;SDS011;11029;47.820;10.534;2023-08-06T17:00:53;1.30;;;0.80;;
21733;SDS011;11029;47.820;10.534;2023-08-06T17:03:22;1.50;;;0.65;;
21733;SDS011;11029;47.820;10.534;2023-08-06T17:05:49;0.55;;;0.55;;
21733;SDS011;11029;47.820;10.534;2023-08-06T17:08:15;1.30;;;0.68;;
21733;SDS011;11029;47.820;10.534;2023-08-06T17:10:42;0.95;;;0.50;;
21733;SDS011;11029;47.820;10.534;2023-08-06T17:13:09;0.50;;;0.50;;
21733;SDS011;11029;47.820;10.534;2023-08-06T17:15:46;0.40;;;0.40;;
21733;SDS011;11029;47.820;10.534;2023-08-06T17:18:13;0.50;;;0.50;;
21733;SDS011;11029;47.820;10.534;2023-08-06T17:20:44;2.17;;;0.32;;
21733;SDS011;11029;47.820;10.534;2023-08-06T17:23:12;0.30;;;0.30;;
21733;SDS011;11029;47.820;10.534;2023-08-06T17:25:40;0.30;;;0.30;;
21733;SDS011;11029;47.820;10.534;2023-08-06T17:28:08;1.98;;;0.40;;
21733;SDS011;11029;47.820;10.534;2023-08-06T17:30:35;3.22;;;0.60;;
21733;SDS011;11029;47.820;10.534;2023-08-06T17:33:02;0.63;;;0.40;;
21733;SDS011;11029;47.820;10.534;2023-08-06T17:35:29;0.43;;;0.43;;
21733;SDS011;11029;47.820;10.534;2023-08-06T17:37:58;0.50;;;0.40;;
21733;SDS011;11029;47.820;10.534;2023-08-06T17:40:26;1.95;;;0.60;;
21733;SDS011;11029;47.820;10.534;2023-08-06T17:42:54;1.63;;;0.50;;
21733;SDS011;11029;47.820;10.534;2023-08-06T17:45:21;0.50;;;0.43;;
21733;SDS011;11029;47.820;10.534;2023-08-06T17:47:50;0.57;;;0.50;;
21733;SDS011;11029;47.820;10.534;2023-08-06T17:50:17;0.60;;;0.60;;
21733;SDS011;11029;47.820;10.534;2023-08-06T17:52:44;0.60;;;0.60;;
21733;SDS011;11029;47.820;10.534;2023-08-06T17:55:12;1.38;;;0.60;;
21733;SDS011;11029;47.820;10.534;2023-08-06T17:57:39;0.35;;;0.35;;
21733;SDS011;11029;47.820;10.534;2023-08-06T18:00:07;0.70;;;0.60;;
21733;SDS011;11029;47.820;10.534;2023-08-06T18:02:37;0.73;;;0.67;;
21733;SDS011;11029;47.820;10.534;2023-08-06T18:05:05;1.58;;;0.60;;
21733;SDS011;11029;47.820;10.534;2023-08-06T18:07:32;1.60;;;0.88;;
21733;SDS011;11029;47.820;10.534;2023-08-06T18:09:59;0.85;;;0.80;;
21733;SDS011;11029;47.820;10.534;2023-08-06T18:12:25;1.13;;;0.80;;
21733;SDS011;11029;47.820;10.534;2023-08-06T18:14:52;3.38;;;1.83;;
21733;SDS011;11029;47.820;10.534;2023-08-06T18:17:19;0.60;;;0.60;;
21733;SDS011;11029;47.820;10.534;2023-08-06T18:19:46;0.50;;;0.50;;
21733;SDS011;11029;47.820;10.534;2023-08-06T18:22:12;2.03;;;0.90;;
21733;SDS011;11029;47.820;10.534;2023-08-06T18:24:39;1.42;;;0.80;;
21733;SDS011;11029;47.820;10.534;2023-08-06T18:27:06;1.58;;;0.80;;
21733;SDS011;11029;47.820;10.534;2023-08-06T18:29:33;2.58;;;0.88;;
21733;SDS011;11029;47.820;10.534;2023-08-06T18:31:59;0.90;;;0.90;;
21733;SDS011;11029;47.820;10.534;2023-08-06T18:34:26;2.25;;;0.80;;
21733;SDS011;11029;47.820;10.534;2023-08-06T18:36:53;0.90;;;0.73;;
21733;SDS011;11029;47.820;10.534;2023-08-06T18:39:20;0.77;;;0.77;;
21733;SDS011;11029;47.820;10.534;2023-08-06T18:41:47;1.10;;;0.80;;
21733;SDS011;11029;47.820;10.534;2023-08-06T18:44:14;1.13;;;1.02;;
21733;SDS011;11029;47.820;10.534;2023-08-06T18:46:41;1.42;;;0.88;;
21733;SDS011;11029;47.820;10.534;2023-08-06T18:49:07;1.35;;;0.90;;
21733;SDS011;11029;47.820;10.534;2023-08-06T18:51:34;2.13;;;0.90;;
21733;SDS011;11029;47.820;10.534;2023-08-06T18:54:03;1.70;;;0.98;;
21733;SDS011;11029;47.820;10.534;2023-08-06T18:56:29;1.17;;;1.08;;
21733;SDS011;11029;47.820;10.534;2023-08-06T18:58:56;2.20;;;0.75;;
21733;SDS011;11029;47.820;10.534;2023-08-06T19:01:23;1.15;;;0.50;;
21733;SDS011;11029;47.820;10.534;2023-08-06T19:03:50;1.63;;;0.70;;
21733;SDS011;11029;47.820;10.534;2023-08-06T19:06:17;0.93;;;0.70;;
21733;SDS011;11029;47.820;10.534;2023-08-06T19:08:43;0.85;;;0.85;;
21733;SDS011;11029;47.820;10.534;2023-08-06T19:11:10;1.48;;;0.57;;
21733;SDS011;11029;47.820;10.534;2023-08-06T19:13:37;2.70;;;1.92;;
21733;SDS011;11029;47.820;10.534;2023-08-06T19:16:04;1.30;;;0.80;;
21733;SDS011;11029;47.820;10.534;2023-08-06T19:18:30;0.70;;;0.70;;
21733;SDS011;11029;47.820;10.534;2023-08-06T19:20:57;0.98;;;0.85;;
21733;SDS011;11029;47.820;10.534;2023-08-06T19:23:24;1.00;;;0.60;;
21733;SDS011;11029;47.820;10.534;2023-08-06T19:25:54;2.05;;;0.80;;
21733;SDS011;11029;47.820;10.534;2023-08-06T19:28:21;0.70;;;0.63;;
21733;SDS011;11029;47.820;10.534;2023-08-06T19:30:48;1.83;;;1.00;;
21733;SDS011;11029;47.820;10.534;2023-08-06T19:33:15;1.52;;;0.70;;
21733;SDS011;11029;47.820;10.534;2023-08-06T19:35:48;0.80;;;0.80;;
21733;SDS011;11029;47.820;10.534;2023-08-06T19:38:16;2.58;;;1.00;;
21733;SDS011;11029;47.820;10.534;2023-08-06T19:40:45;1.30;;;0.90;;
21733;SDS011;11029;47.820;10.534;2023-08-06T19:43:13;1.38;;;1.00;;
21733;SDS011;11029;47.820;10.534;2023-08-06T19:45:44;1.52;;;0.90;;
21733;SDS011;11029;47.820;10.534;2023-08-06T19:48:13;1.67;;;0.70;;
21733;SDS011;11029;47.820;10.534;2023-08-06T19:50:40;1.33;;;0.70;;
21733;SDS011;11029;47.820;10.534;2023-08-06T19:53:07;1.15;;;0.60;;
21733;SDS011;11029;47.820;10.534;2023-08-06T19:55:37;1.48;;;0.65;;
21733;SDS011;11029;47.820;10.534;2023-08-06T19:58:05;0.82;;;0.77;;
21733;SDS011;11029;47.820;10.534;2023-08-06T20:00:33;1.67;;;1.08;;
21733;SDS011;11029;47.820;10.534;2023-08-06T20:03:00;2.67;;;0.95;;
21733;SDS011;11029;47.820;10.534;2023-08-06T20:05:28;0.88;;;0.88;;
21733;SDS011;11029;47.820;10.534;2023-08-06T20:07:54;1.15;;;1.05;;
21733;SDS011;11029;47.820;10.534;2023-08-06T20:10:22;1.30;;;0.90;;
21733;SDS011;11029;47.820;10.534;2023-08-06T20:12:48;1.17;;;0.85;;
21733;SDS011;11029;47.820;10.534;2023-08-06T20:15:15;1.70;;;0.90;;
21733;SDS011;11029;47.820;10.534;2023-08-06T20:17:42;1.00;;;0.90;;
21733;SDS011;11029;47.820;10.534;2023-08-06T20:20:09;1.67;;;1.13;;
21733;SDS011;11029;47.820;10.534;2023-08-06T20:22:37;1.27;;;1.00;;
21733;SDS011;11029;47.820;10.534;2023-08-06T20:25:04;2.58;;;1.13;;
21733;SDS011;11029;47.820;10.534;2023-08-06T20:27:31;1.77;;;0.80;;
21733;SDS011;11029;47.820;10.534;2023-08-06T20:29:57;0.80;;;0.80;;
21733;SDS011;11029;47.820;10.534;2023-08-06T20:32:24;1.30;;;0.80;;
21733;SDS011;11029;47.820;10.534;2023-08-06T20:34:53;2.67;;;0.88;;
21733;SDS011;11029;47.820;10.534;2023-08-06T20:37:20;2.75;;;0.70;;
21733;SDS011;11029;47.820;10.534;2023-08-06T20:39:47;1.90;;;0.80;;
21733;SDS011;11029;47.820;10.534;2023-08-06T20:42:13;4.32;;;1.15;;
21733;SDS011;11029;47.820;10.534;2023-08-06T20:44:40;0.98;;;0.70;;
21733;SDS011;11029;47.820;10.534;2023-08-06T20:47:07;1.63;;;0.65;;
21733;SDS011;11029;47.820;10.534;2023-08-06T20:49:34;1.98;;;0.93;;
21733;SDS011;11029;47.820;10.534;2023-08-06T20:52:00;2.17;;;0.80;;
21733;SDS011;11029;47.820;10.534;2023-08-06T20:54:30;1.25;;;0.90;;
21733;SDS011;11029;47.820;10.534;2023-08-06T20:56:57;1.63;;;1.00;;
21733;SDS011;11029;47.820;10.534;2023-08-06T20:59:24;1.40;;;0.90;;
21733;SDS011;11029;47.820;10.534;2023-08-06T21:01:51;1.48;;;1.02;;
21733;SDS011;11029;47.820;10.534;2023-08-06T21:04:18;0.73;;;0.73;;
21733;SDS011;11029;47.820;10.534;2023-08-06T21:06:45;2.13;;;0.82;;
21733;SDS011;11029;47.820;10.534;2023-08-06T21:09:11;2.10;;;1.02;;
21733;SDS011;11029;47.820;10.534;2023-08-06T21:11:38;3.80;;;1.00;;
21733;SDS011;11029;47.820;10.534;2023-08-06T21:14:05;1.88;;;0.98;;
21733;SDS011;11029;47.820;10.534;2023-08-06T21:16:32;0.80;;;0.80;;
21733;SDS011;11029;47.820;10.534;2023-08-06T21:18:59;1.73;;;1.13;;
21733;SDS011;11029;47.820;10.534;2023-08-06T21:21:29;3.58;;;1.10;;
21733;SDS011;11029;47.820;10.534;2023-08-06T21:23:56;2.53;;;1.23;;
21733;SDS011;11029;47.820;10.534;2023-08-06T21:26:22;1.63;;;1.27;;
21733;SDS011;11029;47.820;10.534;2023-08-06T21:28:49;2.05;;;0.90;;
21733;SDS011;11029;47.820;10.534;2023-08-06T21:31:16;1.10;;;1.00;;
21733;SDS011;11029;47.820;10.534;2023-08-06T21:33:43;1.65;;;1.23;;
21733;SDS011;11029;47.820;10.534;2023-08-06T21:36:10;1.30;;;1.20;;
21733;SDS011;11029;47.820;10.534;2023-08-06T21:38:38;1.77;;;1.20;;
21733;SDS011;11029;47.820;10.534;2023-08-06T21:41:09;2.95;;;1.05;;
21733;SDS011;11029;47.820;10.534;2023-08-06T21:43:42;2.17;;;1.38;;
21733;SDS011;11029;47.820;10.534;2023-08-06T21:46:11;1.38;;;1.10;;
21733;SDS011;11029;47.820;10.534;2023-08-06T21:48:41;2.42;;;1.08;;
21733;SDS011;11029;47.820;10.534;2023-08-06T21:51:13;2.30;;;1.17;;
21733;SDS011;11029;47.820;10.534;2023-08-06T21:53:41;1.40;;;1.30;;
21733;SDS011;11029;47.820;10.534;2023-08-06T21:56:09;1.42;;;1.20;;
21733;SDS011;11029;47.820;10.534;2023-08-06T21:58:38;2.22;;;1.40;;
21733;SDS011;11029;47.820;10.534;2023-08-06T22:01:06;1.88;;;1.42;;
21733;SDS011;11029;47.820;10.534;2023-08-06T22:03:34;2.38;;;1.48;;
21733;SDS011;11029;47.820;10.534;2023-08-06T22:06:02;1.63;;;1.50;;
21733;SDS011;11029;47.820;10.534;2023-08-06T22:08:29;1.42;;;1.27;;
21733;SDS011;11029;47.820;10.534;2023-08-06T22:10:56;1.63;;;1.40;;
21733;SDS011;11029;47.820;10.534;2023-08-06T22:13:23;4.95;;;1.23;;
21733;SDS011;11029;47.820;10.534;2023-08-06T22:15:50;2.03;;;1.30;;
21733;SDS011;11029;47.820;10.534;2023-08-06T22:18:17;1.40;;;1.02;;
21733;SDS011;11029;47.820;10.534;2023-08-06T22:20:44;2.47;;;1.30;;
21733;SDS011;11029;47.820;10.534;2023-08-06T22:23:12;2.05;;;1.48;;
21733;SDS011;11029;47.820;10.534;2023-08-06T22:25:38;2.78;;;1.45;;
21733;SDS011;11029;47.820;10.534;2023-08-06T22:28:05;2.90;;;1.98;;
21733;SDS011;11029;47.820;10.534;2023-08-06T22:30:32;1.63;;;1.50;;
21733;SDS011;11029;47.820;10.534;2023-08-06T22:32:59;2.28;;;1.25;;
21733;SDS011;11029;47.820;10.534;2023-08-06T22:35:26;3.05;;;1.58;;
21733;SDS011;11029;47.820;10.534;2023-08-06T22:37:53;2.20;;;1.60;;
21733;SDS011;11029;47.820;10.534;2023-08-06T22:40:20;3.53;;;1.52;;
21733;SDS011;11029;47.820;10.534;2023-08-06T22:42:47;12.38;;;2.10;;
21733;SDS011;11029;47.820;10.534;2023-08-06T22:45:14;2.42;;;1.60;;
21733;SDS011;11029;47.820;10.534;2023-08-06T22:47:41;1.40;;;1.25;;
21733;SDS011;11029;47.820;10.534;2023-08-06T22:50:09;1.90;;;1.40;;
21733;SDS011;11029;47.820;10.534;2023-08-06T22:52:36;1.52;;;1.30;;
21733;SDS011;11029;47.820;10.534;2023-08-06T22:55:04;2.67;;;1.20;;
21733;SDS011;11029;47.820;10.534;2023-08-06T22:57:52;1.27;;;1.00;;
21733;SDS011;11029;47.820;10.534;2023-08-06T23:00:18;1.55;;;0.80;;
21733;SDS011;11029;47.820;10.534;2023-08-06T23:02:45;2.10;;;1.00;;
21733;SDS011;11029;47.820;10.534;2023-08-06T23:05:32;1.00;;;0.88;;
21733;SDS011;11029;47.820;10.534;2023-08-06T23:07:59;2.28;;;0.90;;
21733;SDS011;11029;47.820;10.534;2023-08-06T23:10:25;1.00;;;0.90;;
21733;SDS011;11029;47.820;10.534;2023-08-06T23:12:53;1.10;;;1.00;;
21733;SDS011;11029;47.820;10.534;2023-08-06T23:15:20;2.10;;;0.90;;
21733;SDS011;11029;47.820;10.534;2023-08-06T23:17:46;1.40;;;0.90;;
21733;SDS011;11029;47.820;10.534;2023-08-06T23:20:13;1.40;;;0.90;;
21733;SDS011;11029;47.820;10.534;2023-08-06T23:22:40;1.40;;;0.80;;
21733;SDS011;11029;47.820;10.534;2023-08-06T23:25:07;2.10;;;1.20;;
21733;SDS011;11029;47.820;10.534;2023-08-06T23:27:34;1.10;;;1.10;;
21733;SDS011;11029;47.820;10.534;2023-08-06T23:30:01;1.17;;;0.95;;
21733;SDS011;11029;47.820;10.534;2023-08-06T23:32:28;2.92;;;1.25;;
21733;SDS011;11029;47.820;10.534;2023-08-06T23:34:55;1.13;;;0.95;;
21733;SDS011;11029;47.820;10.534;2023-08-06T23:37:22;2.45;;;1.10;;
21733;SDS011;11029;47.820;10.534;2023-08-06T23:39:49;1.70;;;1.05;;
21733;SDS011;11029;47.820;10.534;2023-08-06T23:42:19;1.15;;;0.95;;
21733;SDS011;11029;47.820;10.534;2023-08-06T23:44:46;1.67;;;1.10;;
21733;SDS011;11029;47.820;10.534;2023-08-06T23:47:13;1.38;;;1.02;;
21733;SDS011;11029;47.820;10.534;2023-08-06T23:49:40;2.58;;;0.93;;
21733;SDS011;11029;47.820;10.534;2023-08-06T23:52:07;2.97;;;1.20;;
21733;SDS011;11029;47.820;10.534;2023-08-06T23:54:33;1.80;;;0.98;;
21733;SDS011;11029;47.820;10.534;2023-08-06T23:57:00;2.30;;;1.42;;
21733;SDS011;11029;47.820;10.534;2023-08-06T23:59:27;1.50;;;1.40;;
